sensor_id;sensor_type;location;lat;lon;timestamp;P1;durP1;ratioP1;P2;durP2;ratioP2
43527;SDS011;52359;42.658;23.320;2023-04-03T06:18:09;28.10;;;10.63;;
43527;SDS011;52359;42.658;23.320;2023-04-03T06:20:35;38.30;;;11.38;;
43527;SDS011;52359;42.658;23.320;2023-04-03T06:23:00;37.38;;;11.93;;
43527;SDS011;52359;42.658;23.320;2023-04-03T06:25:27;34.05;;;12.30;;
43527;SDS011;52359;42.658;23.320;2023-04-03T06:27:52;32.50;;;12.27;;
43527;SDS011;52359;42.658;23.320;2023-04-03T06:30:20;28.33;;;11.80;;
43527;SDS011;52359;42.658;23.320;2023-04-03T06:32:46;27.17;;;12.25;;
43527;SDS011;52359;42.658;23.320;2023-04-03T06:35:12;39.28;;;10.02;;
43527;SDS011;52359;42.658;23.320;2023-04-03T06:37:37;27.52;;;9.75;;
43527;SDS011;52359;42.658;23.320;2023-04-03T06:40:03;30.27;;;8.60;;
43527;SDS011;52359;42.658;23.320;2023-04-03T06:42:30;29.23;;;8.30;;
43527;SDS011;52359;42.658;23.320;2023-04-03T06:44:56;31.10;;;10.23;;
43527;SDS011;52359;42.658;23.320;2023-04-03T06:47:21;29.80;;;10.20;;
43527;SDS011;52359;42.658;23.320;2023-04-03T06:49:47;29.30;;;9.30;;
43527;SDS011;52359;42.658;23.320;2023-04-03T06:52:13;30.73;;;11.27;;
43527;SDS011;52359;42.658;23.320;2023-04-03T06:54:39;27.42;;;11.30;;
43527;SDS011;52359;42.658;23.320;2023-04-03T06:57:05;44.03;;;11.30;;
43527;SDS011;52359;42.658;23.320;2023-04-03T06:59:31;39.60;;;11.73;;
43527;SDS011;52359;42.658;23.320;2023-04-03T07:01:57;43.53;;;13.50;;
43527;SDS011;52359;42.658;23.320;2023-04-03T07:04:24;38.55;;;13.32;;
43527;SDS011;52359;42.658;23.320;2023-04-03T07:06:53;31.48;;;12.00;;
43527;SDS011;52359;42.658;23.320;2023-04-03T07:09:20;40.65;;;12.23;;
43527;SDS011;52359;42.658;23.320;2023-04-03T07:11:46;31.67;;;12.00;;
43527;SDS011;52359;42.658;23.320;2023-04-03T07:14:12;30.70;;;10.15;;
43527;SDS011;52359;42.658;23.320;2023-04-03T07:16:38;35.55;;;11.23;;
43527;SDS011;52359;42.658;23.320;2023-04-03T07:19:04;31.25;;;10.68;;
43527;SDS011;52359;42.658;23.320;2023-04-03T07:21:30;33.50;;;11.25;;
43527;SDS011;52359;42.658;23.320;2023-04-03T07:23:56;34.83;;;9.35;;
43527;SDS011;52359;42.658;23.320;2023-04-03T07:26:22;32.80;;;12.27;;
43527;SDS011;52359;42.658;23.320;2023-04-03T07:28:48;18.67;;;8.23;;
43527;SDS011;52359;42.658;23.320;2023-04-03T07:31:15;13.35;;;6.50;;
43527;SDS011;52359;42.658;23.320;2023-04-03T07:33:42;16.63;;;7.85;;
43527;SDS011;52359;42.658;23.320;2023-04-03T07:36:09;15.88;;;7.60;;
43527;SDS011;52359;42.658;23.320;2023-04-03T07:38:35;17.77;;;8.32;;
43527;SDS011;52359;42.658;23.320;2023-04-03T07:41:02;26.95;;;12.40;;
43527;SDS011;52359;42.658;23.320;2023-04-03T07:43:28;35.03;;;11.98;;
43527;SDS011;52359;42.658;23.320;2023-04-03T07:45:54;26.08;;;9.48;;
43527;SDS011;52359;42.658;23.320;2023-04-03T07:48:21;17.25;;;7.00;;
43527;SDS011;52359;42.658;23.320;2023-04-03T07:50:47;19.92;;;7.00;;
43527;SDS011;52359;42.658;23.320;2023-04-03T07:53:14;17.77;;;7.10;;
43527;SDS011;52359;42.658;23.320;2023-04-03T07:55:40;14.02;;;7.88;;
43527;SDS011;52359;42.658;23.320;2023-04-03T07:58:14;16.90;;;6.80;;
43527;SDS011;52359;42.658;23.320;2023-04-03T08:00:40;14.30;;;8.15;;
43527;SDS011;52359;42.658;23.320;2023-04-03T08:03:06;18.10;;;7.05;;
43527;SDS011;52359;42.658;23.320;2023-04-03T08:05:40;18.10;;;7.40;;
43527;SDS011;52359;42.658;23.320;2023-04-03T08:08:06;17.00;;;7.45;;
43527;SDS011;52359;42.658;23.320;2023-04-03T08:10:33;12.93;;;6.50;;
43527;SDS011;52359;42.658;23.320;2023-04-03T08:12:59;14.38;;;7.03;;
43527;SDS011;52359;42.658;23.320;2023-04-03T08:15:25;13.65;;;6.38;;
43527;SDS011;52359;42.658;23.320;2023-04-03T08:17:52;13.32;;;7.40;;
43527;SDS011;52359;42.658;23.320;2023-04-03T08:20:18;13.68;;;6.32;;
43527;SDS011;52359;42.658;23.320;2023-04-03T08:22:44;17.80;;;5.93;;
43527;SDS011;52359;42.658;23.320;2023-04-03T08:25:10;13.98;;;5.80;;
43527;SDS011;52359;42.658;23.320;2023-04-03T08:27:36;12.63;;;5.60;;
43527;SDS011;52359;42.658;23.320;2023-04-03T08:30:03;28.67;;;11.20;;
43527;SDS011;52359;42.658;23.320;2023-04-03T08:32:29;42.38;;;15.75;;
43527;SDS011;52359;42.658;23.320;2023-04-03T08:34:55;33.53;;;16.63;;
43527;SDS011;52359;42.658;23.320;2023-04-03T08:37:21;50.75;;;17.60;;
43527;SDS011;52359;42.658;23.320;2023-04-03T08:39:48;52.00;;;17.92;;
43527;SDS011;52359;42.658;23.320;2023-04-03T08:47:30;41.50;;;17.50;;
43527;SDS011;52359;42.658;23.320;2023-04-03T08:50:04;37.65;;;15.32;;
43527;SDS011;52359;42.658;23.320;2023-04-03T08:52:50;32.60;;;14.85;;
43527;SDS011;52359;42.658;23.320;2023-04-03T08:57:44;29.45;;;12.77;;
43527;SDS011;52359;42.658;23.320;2023-04-03T09:02:43;36.72;;;12.90;;
43527;SDS011;52359;42.658;23.320;2023-04-03T09:05:12;31.33;;;15.52;;
43527;SDS011;52359;42.658;23.320;2023-04-03T09:07:42;30.52;;;12.30;;
43527;SDS011;52359;42.658;23.320;2023-04-03T09:10:09;22.85;;;12.30;;
43527;SDS011;52359;42.658;23.320;2023-04-03T09:12:41;40.65;;;12.93;;
43527;SDS011;52359;42.658;23.320;2023-04-03T09:22:38;36.63;;;13.18;;
43527;SDS011;52359;42.658;23.320;2023-04-03T09:27:41;35.03;;;13.57;;
43527;SDS011;52359;42.658;23.320;2023-04-03T09:30:12;36.22;;;10.05;;
43527;SDS011;52359;42.658;23.320;2023-04-03T09:32:38;21.88;;;10.38;;
43527;SDS011;52359;42.658;23.320;2023-04-03T09:35:19;16.95;;;6.95;;
43527;SDS011;52359;42.658;23.320;2023-04-03T09:37:47;13.38;;;5.40;;
43527;SDS011;52359;42.658;23.320;2023-04-03T09:42:56;9.02;;;3.17;;
43527;SDS011;52359;42.658;23.320;2023-04-03T09:45:23;6.95;;;2.58;;
43527;SDS011;52359;42.658;23.320;2023-04-03T09:47:52;6.70;;;2.83;;
43527;SDS011;52359;42.658;23.320;2023-04-03T09:50:29;7.82;;;3.42;;
43527;SDS011;52359;42.658;23.320;2023-04-03T09:52:55;6.10;;;3.90;;
43527;SDS011;52359;42.658;23.320;2023-04-03T09:55:22;15.27;;;4.70;;
43527;SDS011;52359;42.658;23.320;2023-04-03T09:57:53;6.93;;;4.28;;
43527;SDS011;52359;42.658;23.320;2023-04-03T10:00:23;6.95;;;2.40;;
43527;SDS011;52359;42.658;23.320;2023-04-03T10:02:51;7.40;;;2.50;;
43527;SDS011;52359;42.658;23.320;2023-04-03T10:08:03;10.38;;;3.78;;
43527;SDS011;52359;42.658;23.320;2023-04-03T10:10:32;5.97;;;1.63;;
43527;SDS011;52359;42.658;23.320;2023-04-03T10:13:03;6.05;;;2.17;;
43527;SDS011;52359;42.658;23.320;2023-04-03T10:15:31;3.30;;;1.58;;
43527;SDS011;52359;42.658;23.320;2023-04-03T10:18:04;11.98;;;3.65;;
43527;SDS011;52359;42.658;23.320;2023-04-03T10:20:39;9.70;;;3.10;;
43527;SDS011;52359;42.658;23.320;2023-04-03T10:31:09;4.45;;;2.53;;
43527;SDS011;52359;42.658;23.320;2023-04-03T10:36:25;8.77;;;3.75;;
43527;SDS011;52359;42.658;23.320;2023-04-03T10:38:57;3.78;;;2.85;;
43527;SDS011;52359;42.658;23.320;2023-04-03T10:46:49;4.90;;;2.97;;
43527;SDS011;52359;42.658;23.320;2023-04-03T10:51:51;5.85;;;2.53;;
43527;SDS011;52359;42.658;23.320;2023-04-03T10:54:24;6.45;;;2.60;;
43527;SDS011;52359;42.658;23.320;2023-04-03T10:56:55;8.25;;;2.40;;
43527;SDS011;52359;42.658;23.320;2023-04-03T10:59:30;7.97;;;2.72;;
43527;SDS011;52359;42.658;23.320;2023-04-03T11:04:36;12.70;;;2.70;;
43527;SDS011;52359;42.658;23.320;2023-04-03T11:09:34;7.65;;;2.00;;
43527;SDS011;52359;42.658;23.320;2023-04-03T11:12:06;4.43;;;2.50;;
43527;SDS011;52359;42.658;23.320;2023-04-03T11:14:36;6.18;;;2.95;;
43527;SDS011;52359;42.658;23.320;2023-04-03T11:19:39;4.28;;;2.40;;
43527;SDS011;52359;42.658;23.320;2023-04-03T11:22:26;6.43;;;2.90;;
43527;SDS011;52359;42.658;23.320;2023-04-03T11:27:25;7.80;;;3.53;;
43527;SDS011;52359;42.658;23.320;2023-04-03T11:29:52;7.72;;;5.32;;
43527;SDS011;52359;42.658;23.320;2023-04-03T11:34:52;18.20;;;4.60;;
43527;SDS011;52359;42.658;23.320;2023-04-03T11:37:33;4.82;;;3.67;;
43527;SDS011;52359;42.658;23.320;2023-04-03T11:40:04;6.43;;;3.65;;
43527;SDS011;52359;42.658;23.320;2023-04-03T11:42:36;6.80;;;3.47;;
43527;SDS011;52359;42.658;23.320;2023-04-03T11:47:51;7.75;;;3.20;;
43527;SDS011;52359;42.658;23.320;2023-04-03T11:53:09;4.80;;;3.55;;
43527;SDS011;52359;42.658;23.320;2023-04-03T12:08:30;7.38;;;3.65;;
43527;SDS011;52359;42.658;23.320;2023-04-03T12:13:42;4.10;;;2.90;;
43527;SDS011;52359;42.658;23.320;2023-04-03T12:45:20;7.25;;;3.58;;
43527;SDS011;52359;42.658;23.320;2023-04-03T12:47:51;6.00;;;2.92;;
43527;SDS011;52359;42.658;23.320;2023-04-03T12:50:25;5.53;;;3.70;;
43527;SDS011;52359;42.658;23.320;2023-04-03T12:53:05;7.18;;;3.60;;
43527;SDS011;52359;42.658;23.320;2023-04-03T12:55:31;4.03;;;3.05;;
43527;SDS011;52359;42.658;23.320;2023-04-03T12:58:12;9.57;;;3.38;;
43527;SDS011;52359;42.658;23.320;2023-04-03T13:00:40;5.85;;;3.60;;
43527;SDS011;52359;42.658;23.320;2023-04-03T13:03:06;7.85;;;3.70;;
43527;SDS011;52359;42.658;23.320;2023-04-03T13:05:45;5.70;;;3.97;;
43527;SDS011;52359;42.658;23.320;2023-04-03T13:08:12;6.32;;;4.15;;
43527;SDS011;52359;42.658;23.320;2023-04-03T13:10:43;7.13;;;3.95;;
43527;SDS011;52359;42.658;23.320;2023-04-03T13:13:09;7.85;;;3.58;;
43527;SDS011;52359;42.658;23.320;2023-04-03T13:15:45;4.40;;;2.83;;
43527;SDS011;52359;42.658;23.320;2023-04-03T13:20:52;6.78;;;3.20;;
43527;SDS011;52359;42.658;23.320;2023-04-03T13:23:20;5.72;;;3.30;;
43527;SDS011;52359;42.658;23.320;2023-04-03T13:25:47;8.05;;;3.00;;
43527;SDS011;52359;42.658;23.320;2023-04-03T13:28:15;6.93;;;3.38;;
43527;SDS011;52359;42.658;23.320;2023-04-03T13:31:02;10.73;;;3.42;;
43527;SDS011;52359;42.658;23.320;2023-04-03T13:33:30;15.82;;;3.97;;
43527;SDS011;52359;42.658;23.320;2023-04-03T13:36:08;9.45;;;4.03;;
43527;SDS011;52359;42.658;23.320;2023-04-03T13:38:36;5.60;;;3.00;;
43527;SDS011;52359;42.658;23.320;2023-04-03T13:41:04;10.88;;;3.13;;
43527;SDS011;52359;42.658;23.320;2023-04-03T13:43:35;7.28;;;3.40;;
43527;SDS011;52359;42.658;23.320;2023-04-03T13:48:52;8.98;;;4.13;;
43527;SDS011;52359;42.658;23.320;2023-04-03T13:51:18;6.80;;;3.35;;
43527;SDS011;52359;42.658;23.320;2023-04-03T13:53:46;4.38;;;3.53;;
43527;SDS011;52359;42.658;23.320;2023-04-03T13:56:17;6.50;;;3.28;;
43527;SDS011;52359;42.658;23.320;2023-04-03T13:58:52;5.03;;;3.72;;
43527;SDS011;52359;42.658;23.320;2023-04-03T14:01:19;8.43;;;3.95;;
43527;SDS011;52359;42.658;23.320;2023-04-03T14:03:53;11.48;;;3.85;;
43527;SDS011;52359;42.658;23.320;2023-04-03T14:06:19;4.90;;;3.80;;
43527;SDS011;52359;42.658;23.320;2023-04-03T14:08:45;8.18;;;4.70;;
43527;SDS011;52359;42.658;23.320;2023-04-03T14:11:16;7.50;;;5.28;;
43527;SDS011;52359;42.658;23.320;2023-04-03T14:13:43;9.80;;;5.50;;
43527;SDS011;52359;42.658;23.320;2023-04-03T14:16:18;12.80;;;4.70;;
43527;SDS011;52359;42.658;23.320;2023-04-03T14:18:45;7.60;;;5.07;;
43527;SDS011;52359;42.658;23.320;2023-04-03T14:21:12;6.35;;;4.20;;
43527;SDS011;52359;42.658;23.320;2023-04-03T14:23:38;14.10;;;3.85;;
43527;SDS011;52359;42.658;23.320;2023-04-03T14:26:08;4.05;;;3.03;;
43527;SDS011;52359;42.658;23.320;2023-04-03T14:28:35;4.00;;;3.00;;
43527;SDS011;52359;42.658;23.320;2023-04-03T14:31:01;4.97;;;2.85;;
43527;SDS011;52359;42.658;23.320;2023-04-03T14:33:27;3.83;;;2.70;;
43527;SDS011;52359;42.658;23.320;2023-04-03T14:35:56;6.68;;;4.00;;
43527;SDS011;52359;42.658;23.320;2023-04-03T14:38:29;4.47;;;3.22;;
43527;SDS011;52359;42.658;23.320;2023-04-03T14:40:55;3.67;;;2.90;;
43527;SDS011;52359;42.658;23.320;2023-04-03T14:43:23;5.80;;;3.50;;
43527;SDS011;52359;42.658;23.320;2023-04-03T14:45:50;4.55;;;3.38;;
43527;SDS011;52359;42.658;23.320;2023-04-03T14:48:18;3.40;;;2.75;;
43527;SDS011;52359;42.658;23.320;2023-04-03T14:50:45;4.35;;;3.08;;
43527;SDS011;52359;42.658;23.320;2023-04-03T14:53:11;8.02;;;3.67;;
43527;SDS011;52359;42.658;23.320;2023-04-03T14:55:39;7.95;;;3.33;;
43527;SDS011;52359;42.658;23.320;2023-04-03T14:58:08;3.60;;;2.83;;
43527;SDS011;52359;42.658;23.320;2023-04-03T15:00:34;4.40;;;3.35;;
43527;SDS011;52359;42.658;23.320;2023-04-03T15:03:00;5.22;;;3.40;;
43527;SDS011;52359;42.658;23.320;2023-04-03T15:05:26;7.45;;;3.50;;
43527;SDS011;52359;42.658;23.320;2023-04-03T15:07:52;7.13;;;3.25;;
43527;SDS011;52359;42.658;23.320;2023-04-03T15:10:24;5.32;;;3.05;;
43527;SDS011;52359;42.658;23.320;2023-04-03T15:12:51;4.70;;;2.83;;
43527;SDS011;52359;42.658;23.320;2023-04-03T15:15:17;6.93;;;2.42;;
43527;SDS011;52359;42.658;23.320;2023-04-03T15:17:45;6.63;;;2.63;;
43527;SDS011;52359;42.658;23.320;2023-04-03T15:20:16;4.80;;;3.00;;
43527;SDS011;52359;42.658;23.320;2023-04-03T15:22:43;4.00;;;3.10;;
43527;SDS011;52359;42.658;23.320;2023-04-03T15:25:09;7.55;;;3.47;;
43527;SDS011;52359;42.658;23.320;2023-04-03T15:27:36;5.95;;;3.03;;
43527;SDS011;52359;42.658;23.320;2023-04-03T15:30:03;5.18;;;2.90;;
43527;SDS011;52359;42.658;23.320;2023-04-03T15:32:29;4.40;;;3.47;;
43527;SDS011;52359;42.658;23.320;2023-04-03T15:34:55;5.28;;;3.50;;
43527;SDS011;52359;42.658;23.320;2023-04-03T15:37:22;7.00;;;3.33;;
43527;SDS011;52359;42.658;23.320;2023-04-03T15:39:48;8.15;;;3.80;;
43527;SDS011;52359;42.658;23.320;2023-04-03T15:42:14;5.28;;;3.42;;
43527;SDS011;52359;42.658;23.320;2023-04-03T15:44:40;5.63;;;3.63;;
43527;SDS011;52359;42.658;23.320;2023-04-03T15:47:06;5.53;;;3.65;;
43527;SDS011;52359;42.658;23.320;2023-04-03T15:49:32;8.77;;;3.95;;
43527;SDS011;52359;42.658;23.320;2023-04-03T15:51:59;8.70;;;4.25;;
43527;SDS011;52359;42.658;23.320;2023-04-03T15:54:25;4.68;;;3.40;;
43527;SDS011;52359;42.658;23.320;2023-04-03T15:56:52;8.13;;;4.22;;
43527;SDS011;52359;42.658;23.320;2023-04-03T15:59:18;6.75;;;4.18;;
43527;SDS011;52359;42.658;23.320;2023-04-03T16:01:44;6.45;;;4.20;;
43527;SDS011;52359;42.658;23.320;2023-04-03T16:04:10;7.22;;;4.53;;
43527;SDS011;52359;42.658;23.320;2023-04-03T16:06:37;9.65;;;5.32;;
43527;SDS011;52359;42.658;23.320;2023-04-03T16:09:03;8.95;;;5.65;;
43527;SDS011;52359;42.658;23.320;2023-04-03T16:11:30;13.10;;;5.65;;
43527;SDS011;52359;42.658;23.320;2023-04-03T16:13:56;6.38;;;4.38;;
43527;SDS011;52359;42.658;23.320;2023-04-03T16:16:22;6.50;;;4.57;;
43527;SDS011;52359;42.658;23.320;2023-04-03T16:18:49;6.22;;;4.03;;
43527;SDS011;52359;42.658;23.320;2023-04-03T16:21:15;5.63;;;3.30;;
43527;SDS011;52359;42.658;23.320;2023-04-03T16:23:42;6.10;;;3.80;;
43527;SDS011;52359;42.658;23.320;2023-04-03T16:26:08;3.65;;;3.03;;
43527;SDS011;52359;42.658;23.320;2023-04-03T16:28:35;5.90;;;3.38;;
43527;SDS011;52359;42.658;23.320;2023-04-03T16:31:01;6.50;;;3.10;;
43527;SDS011;52359;42.658;23.320;2023-04-03T16:33:27;4.85;;;2.83;;
43527;SDS011;52359;42.658;23.320;2023-04-03T16:35:53;5.38;;;2.88;;
43527;SDS011;52359;42.658;23.320;2023-04-03T16:38:20;6.38;;;2.90;;
43527;SDS011;52359;42.658;23.320;2023-04-03T16:40:47;6.57;;;2.97;;
43527;SDS011;52359;42.658;23.320;2023-04-03T16:43:13;6.57;;;3.30;;
43527;SDS011;52359;42.658;23.320;2023-04-03T16:45:40;6.20;;;3.35;;
43527;SDS011;52359;42.658;23.320;2023-04-03T16:48:06;5.20;;;2.80;;
43527;SDS011;52359;42.658;23.320;2023-04-03T16:50:32;3.38;;;2.28;;
43527;SDS011;52359;42.658;23.320;2023-04-03T16:52:58;4.55;;;2.58;;
43527;SDS011;52359;42.658;23.320;2023-04-03T16:55:24;4.45;;;2.55;;
43527;SDS011;52359;42.658;23.320;2023-04-03T16:57:50;4.65;;;2.63;;
43527;SDS011;52359;42.658;23.320;2023-04-03T17:00:16;3.70;;;2.55;;
43527;SDS011;52359;42.658;23.320;2023-04-03T17:02:42;7.40;;;3.67;;
43527;SDS011;52359;42.658;23.320;2023-04-03T17:05:08;3.80;;;2.88;;
43527;SDS011;52359;42.658;23.320;2023-04-03T17:07:35;3.90;;;3.00;;
43527;SDS011;52359;42.658;23.320;2023-04-03T17:10:01;6.82;;;2.97;;
43527;SDS011;52359;42.658;23.320;2023-04-03T17:12:27;3.40;;;2.80;;
43527;SDS011;52359;42.658;23.320;2023-04-03T17:14:53;5.63;;;2.90;;
43527;SDS011;52359;42.658;23.320;2023-04-03T17:17:20;3.92;;;2.70;;
43527;SDS011;52359;42.658;23.320;2023-04-03T17:19:46;13.52;;;3.20;;
43527;SDS011;52359;42.658;23.320;2023-04-03T17:22:13;9.55;;;3.53;;
43527;SDS011;52359;42.658;23.320;2023-04-03T17:24:40;5.38;;;3.40;;
43527;SDS011;52359;42.658;23.320;2023-04-03T17:27:06;9.77;;;3.92;;
43527;SDS011;52359;42.658;23.320;2023-04-03T17:29:32;6.45;;;3.63;;
43527;SDS011;52359;42.658;23.320;2023-04-03T17:31:59;3.67;;;2.97;;
43527;SDS011;52359;42.658;23.320;2023-04-03T17:34:24;5.65;;;3.75;;
43527;SDS011;52359;42.658;23.320;2023-04-03T17:36:51;6.22;;;2.97;;
43527;SDS011;52359;42.658;23.320;2023-04-03T17:39:17;4.00;;;2.67;;
43527;SDS011;52359;42.658;23.320;2023-04-03T17:41:43;2.92;;;2.58;;
43527;SDS011;52359;42.658;23.320;2023-04-03T17:44:10;4.65;;;2.70;;
43527;SDS011;52359;42.658;23.320;2023-04-03T17:46:36;3.83;;;2.90;;
43527;SDS011;52359;42.658;23.320;2023-04-03T17:49:02;5.78;;;2.45;;
43527;SDS011;52359;42.658;23.320;2023-04-03T17:51:29;3.55;;;2.47;;
43527;SDS011;52359;42.658;23.320;2023-04-03T17:53:58;4.75;;;2.50;;
43527;SDS011;52359;42.658;23.320;2023-04-03T17:56:24;5.75;;;2.67;;
43527;SDS011;52359;42.658;23.320;2023-04-03T17:58:54;4.25;;;3.72;;
43527;SDS011;52359;42.658;23.320;2023-04-03T18:01:26;5.50;;;2.38;;
43527;SDS011;52359;42.658;23.320;2023-04-03T18:03:53;4.97;;;3.90;;
43527;SDS011;52359;42.658;23.320;2023-04-03T18:06:21;3.90;;;2.78;;
43527;SDS011;52359;42.658;23.320;2023-04-03T18:08:47;3.20;;;2.00;;
43527;SDS011;52359;42.658;23.320;2023-04-03T18:11:14;3.20;;;2.40;;
43527;SDS011;52359;42.658;23.320;2023-04-03T18:13:40;2.75;;;2.20;;
43527;SDS011;52359;42.658;23.320;2023-04-03T18:16:07;4.35;;;2.05;;
43527;SDS011;52359;42.658;23.320;2023-04-03T18:18:33;3.55;;;1.70;;
43527;SDS011;52359;42.658;23.320;2023-04-03T18:21:00;3.63;;;1.67;;
43527;SDS011;52359;42.658;23.320;2023-04-03T18:23:26;1.52;;;1.42;;
43527;SDS011;52359;42.658;23.320;2023-04-03T18:25:53;2.05;;;1.20;;
43527;SDS011;52359;42.658;23.320;2023-04-03T18:28:19;1.40;;;1.30;;
43527;SDS011;52359;42.658;23.320;2023-04-03T18:30:46;2.53;;;1.90;;
43527;SDS011;52359;42.658;23.320;2023-04-03T18:33:12;1.27;;;1.27;;
43527;SDS011;52359;42.658;23.320;2023-04-03T18:35:38;1.40;;;1.30;;
43527;SDS011;52359;42.658;23.320;2023-04-03T18:38:04;3.10;;;1.30;;
43527;SDS011;52359;42.658;23.320;2023-04-03T18:40:31;1.67;;;1.33;;
43527;SDS011;52359;42.658;23.320;2023-04-03T18:42:58;2.00;;;1.20;;
43527;SDS011;52359;42.658;23.320;2023-04-03T18:45:25;1.00;;;1.00;;
43527;SDS011;52359;42.658;23.320;2023-04-03T18:47:51;1.33;;;1.23;;
43527;SDS011;52359;42.658;23.320;2023-04-03T18:50:17;1.77;;;1.45;;
43527;SDS011;52359;42.658;23.320;2023-04-03T18:52:43;1.25;;;1.17;;
43527;SDS011;52359;42.658;23.320;2023-04-03T18:55:14;1.83;;;1.20;;
43527;SDS011;52359;42.658;23.320;2023-04-03T18:57:42;2.25;;;1.30;;
43527;SDS011;52359;42.658;23.320;2023-04-03T19:00:08;1.25;;;1.15;;
43527;SDS011;52359;42.658;23.320;2023-04-03T19:02:35;1.38;;;1.17;;
43527;SDS011;52359;42.658;23.320;2023-04-03T19:05:01;4.70;;;1.10;;
43527;SDS011;52359;42.658;23.320;2023-04-03T19:07:27;3.40;;;1.73;;
43527;SDS011;52359;42.658;23.320;2023-04-03T19:09:54;0.80;;;0.80;;
43527;SDS011;52359;42.658;23.320;2023-04-03T19:12:20;4.45;;;1.75;;
43527;SDS011;52359;42.658;23.320;2023-04-03T19:14:46;1.83;;;0.95;;
43527;SDS011;52359;42.658;23.320;2023-04-03T19:17:12;1.67;;;1.20;;
43527;SDS011;52359;42.658;23.320;2023-04-03T19:19:38;1.20;;;1.10;;
43527;SDS011;52359;42.658;23.320;2023-04-03T19:22:05;2.20;;;1.50;;
43527;SDS011;52359;42.658;23.320;2023-04-03T19:24:31;2.45;;;1.55;;
43527;SDS011;52359;42.658;23.320;2023-04-03T19:26:58;1.30;;;1.27;;
43527;SDS011;52359;42.658;23.320;2023-04-03T19:29:24;1.52;;;1.42;;
43527;SDS011;52359;42.658;23.320;2023-04-03T19:31:50;2.15;;;1.50;;
43527;SDS011;52359;42.658;23.320;2023-04-03T19:34:16;1.58;;;1.35;;
43527;SDS011;52359;42.658;23.320;2023-04-03T19:36:42;2.83;;;1.27;;
43527;SDS011;52359;42.658;23.320;2023-04-03T19:39:09;1.48;;;1.02;;
43527;SDS011;52359;42.658;23.320;2023-04-03T19:41:35;1.30;;;1.10;;
43527;SDS011;52359;42.658;23.320;2023-04-03T19:44:02;3.88;;;1.60;;
